Aeroporto :
LOGIN :

Iscrizione | Disclaimer

   EN    FR    IT 

 










Sommario :    VFR   VFR Marginale   IFR   IFR Intensivo   IFR Molto Intensivo
Visibilità : 
Base nubi : 
>= 8 km
>= 3000ft
5 / 8 km
1000 / 3000 ft
1500m / 5 km
500 / 1000 ft
800 / 1500m
200 / 500 ft
< 800m
< 200 ft
Simboli :   Temporali  Nebbia  Neve Forte  Precipitazioni Forti  Vento > 20 kt
SIGMETs :   Varie  Temporali  Ghiacco  Turbolenza  Onda orograficha  Ceneri Vulcaniche






- Altitudine del aeroporto : 1411 ft
- Codice IATA : SZG


LOWS - Salzburg

ULTIMO METAR :
  • 221020Z VRB02KT CAVOK 18/13 Q1023 NOSIG

METARs OBSOLETI :
  • 220950Z 03003KT CAVOK 17/12 Q1023 NOSIG
  • 220920Z VRB02KT CAVOK 16/13 Q1023 NOSIG
  • 220850Z VRB03KT CAVOK 15/11 Q1023 NOSIG
  • 220820Z VRB02KT CAVOK 14/10 Q1023 NOSIG
  • 220750Z 15005KT 9999 FEW007 BKN300 13/10 Q1023 NOSIG

TAF TAF LOWS
Valido dal 22 a 06 ore il 23 a 06 ore UTC


220515Z 2206/2306 15003KT 8000 FEW001 SCT300 TX18/2213Z TN08/2206Z
PROB30
TEMPO 2206/2207 VRB02KT 1200 BCFG FEW001 SCT020
BECMG 2208/2210 01005KT CAVOK
BECMG 2217/2219 15003KT 8000 SCT005
TEMPO 2221/2306 VRB01KT 1200 BCFG BKN004
PROB30
TEMPO 2300/2306 0200 FG VV002



MetMap, La meteo Aeronautica in un colpo d'occhio ! - Copyright ORBIFLY Dicembre 2007 - Disclaimer

ORBIFLY MET'MAP TEAM :

Programmazione e sviluppo : Alexandra Zaïnal
Concezione e sviluppo : Baudouin d'Aumeries
Co-Programmazione e sviluppo : Marc-Olivier Méhu
Supporto tecnico e logistico : Manuel Goepfert
Aiuto per la traduzione : Arnaldo La Scala

Contatto : metmap@orbifly.com




FONTI E CREDITI :

   NOAA